Time;durP1;ratioP1;P1;durP2;ratioP2;P2;SDS_P1;SDS_P2;PMS_P1;PMS_P2;Temp;Humidity;BMP_temperature;BMP_pressure;BME280_temperature;BME280_humidity;BME280_pressure;Samples;Min_cycle;Max_cycle;Signal;HPM_P1;HPM_P2
2022/11/26 00:01:16;;;;;;;13.05;3.78;;;;;;;15.19;47.13;102398.28;4961857;28;20491;-66
2022/11/26 00:03:41;;;;;;;10.18;3.55;;;;;;;15.19;46.87;102397.44;4994090;28;20038;-65
2022/11/26 00:06:21;;;;;;;12.13;3.35;;;;;;;15.18;47.28;102401.97;4965546;28;20056;-65
2022/11/26 00:08:46;;;;;;;11.57;3.63;;;;;;;15.18;47.25;102406.53;4983903;28;20543;-65
2022/11/26 00:11:14;;;;;;;15.35;4.25;;;;;;;15.15;47.28;102410.31;4969507;28;20042;-65
2022/11/26 00:13:40;;;;;;;12.52;4.35;;;;;;;15.12;47.06;102419.53;4992630;28;20424;-66
2022/11/26 00:16:09;;;;;;;10.50;3.88;;;;;;;15.09;46.80;102414.34;4983741;28;20088;-65
2022/11/26 00:18:34;;;;;;;7.95;3.38;;;;;;;15.12;47.20;102418.66;4984765;28;20549;-66
2022/11/26 00:21:00;;;;;;;10.23;3.80;;;;;;;15.09;47.45;102413.50;4986128;28;20061;-65
2022/11/26 00:23:26;;;;;;;13.13;4.05;;;;;;;15.08;47.76;102417.16;4978007;28;20404;-66
2022/11/26 00:25:55;;;;;;;17.55;4.50;;;;;;;15.10;46.39;102426.03;4984039;28;20035;-66
2022/11/26 00:28:26;;;;;;;13.70;3.83;;;;;;;15.12;46.75;102429.44;4981195;28;20034;-65
2022/11/26 00:30:52;;;;;;;11.07;3.92;;;;;;;15.10;46.35;102420.63;4998171;28;20035;-65
2022/11/26 00:33:18;;;;;;;12.07;4.25;;;;;;;15.11;47.54;102427.72;4967534;28;20027;-65
2022/11/26 00:35:45;;;;;;;11.43;3.72;;;;;;;15.09;47.32;102429.69;4981493;28;20543;-65
2022/11/26 00:38:15;;;;;;;6.78;3.60;;;;;;;15.08;47.67;102425.25;4983056;28;20125;-66
2022/11/26 00:40:41;;;;;;;13.35;3.78;;;;;;;15.00;47.82;102415.06;4970211;28;20165;-65
2022/11/26 00:43:10;;;;;;;14.05;4.57;;;;;;;15.02;47.21;102432.00;4991909;28;20472;-66
2022/11/26 00:45:35;;;;;;;9.88;3.65;;;;;;;15.04;47.15;102432.75;4975575;28;20039;-66
2022/11/26 00:48:01;;;;;;;12.88;3.70;;;;;;;15.03;47.62;102430.16;4976032;28;20503;-66
2022/11/26 00:50:30;;;;;;;9.48;3.53;;;;;;;15.01;47.33;102433.00;4975665;28;20042;-66
2022/11/26 00:52:56;;;;;;;11.70;3.97;;;;;;;14.99;46.61;102443.00;4975493;28;20403;-66
2022/11/26 00:55:31;;;;;;;15.00;3.72;;;;;;;14.99;47.67;102439.47;4975481;28;20035;-66
2022/11/26 00:57:57;;;;;;;17.15;3.60;;;;;;;14.99;47.42;102442.19;4975592;28;20034;-66
2022/11/26 01:00:25;;;;;;;9.65;3.30;;;;;;;14.98;47.21;102443.16;4991984;28;20026;-66
2022/11/26 01:02:51;;;;;;;10.27;2.92;;;;;;;14.94;47.78;102442.50;4976121;28;20018;-66
2022/11/26 01:05:17;;;;;;;16.60;5.47;;;;;;;14.94;47.10;102441.66;4959224;28;20035;-66
2022/11/26 01:07:43;;;;;;;13.70;3.40;;;;;;;14.93;48.14;102440.81;4991625;28;20061;-66
2022/11/26 01:10:20;;;;;;;16.90;3.30;;;;;;;14.90;47.55;102441.06;4975463;28;20390;-65
2022/11/26 01:12:45;;;;;;;14.77;3.90;;;;;;;14.89;47.30;102446.53;4975264;28;20389;-66
2022/11/26 01:15:12;;;;;;;17.85;4.25;;;;;;;14.89;48.17;102447.41;4975646;28;20031;-66
2022/11/26 01:17:37;;;;;;;12.23;4.40;;;;;;;14.87;47.17;102451.22;4975167;28;20400;-66
2022/11/26 01:20:03;;;;;;;17.00;3.97;;;;;;;14.86;47.02;102454.88;4976499;28;20039;-66
2022/11/26 01:22:29;;;;;;;8.50;3.35;;;;;;;14.80;47.31;102449.94;4958895;28;20118;-66
2022/11/26 01:24:54;;;;;;;17.08;3.78;;;;;;;14.82;46.95;102453.41;4976348;28;20031;-66
2022/11/26 01:27:19;;;;;;;10.32;3.90;;;;;;;14.83;46.74;102453.28;4976403;28;20034;-66
2022/11/26 01:29:46;;;;;;;10.18;3.20;;;;;;;14.81;48.06;102451.66;4959108;28;20504;-66
2022/11/26 01:32:11;;;;;;;8.88;3.70;;;;;;;14.76;47.18;102440.38;4975202;28;20061;-66
2022/11/26 01:34:37;;;;;;;18.27;4.55;;;;;;;14.79;47.27;102453.63;4976271;28;20039;-65
2022/11/26 01:37:02;;;;;;;20.10;4.03;;;;;;;14.77;47.07;102445.63;4975217;28;20397;-66
2022/11/26 01:39:27;;;;;;;9.55;3.13;;;;;;;14.76;46.54;102448.47;4974806;28;20095;-66
2022/11/26 01:41:56;;;;;;;8.88;3.00;;;;;;;14.74;46.85;102448.56;4991572;28;20077;-66
2022/11/26 01:44:27;;;;;;;9.48;4.38;;;;;;;14.69;48.07;102447.19;4991171;28;20035;-66
2022/11/26 01:46:53;;;;;;;9.98;3.60;;;;;;;14.63;46.98;102439.59;4974966;28;20045;-66
2022/11/26 01:49:29;;;;;;;12.32;3.17;;;;;;;14.61;46.67;102436.13;4974645;28;20416;-66
2022/11/26 01:52:00;;;;;;;10.57;3.35;;;;;;;14.57;47.34;102439.06;4990744;28;20054;-66
2022/11/26 01:54:26;;;;;;;15.00;3.47;;;;;;;14.54;47.84;102433.88;4975792;28;20396;-66
2022/11/26 01:56:53;;;;;;;9.07;3.45;;;;;;;14.53;47.82;102437.59;4990870;28;20051;-66
2022/11/26 01:59:26;;;;;;;15.30;3.88;;;;;;;14.54;47.18;102439.28;4990822;28;20046;-66
2022/11/26 02:01:53;;;;;;;9.60;2.95;;;;;;;14.54;47.38;102436.59;4990912;28;20030;-66
2022/11/26 02:04:46;;;;;;;10.88;4.63;;;;;;;14.55;47.49;102443.72;4990451;28;20066;-65
2022/11/26 02:07:11;;;;;;;16.08;3.28;;;;;;;14.56;47.63;102440.06;4956411;28;20042;-66
2022/11/26 02:09:37;;;;;;;10.25;3.13;;;;;;;14.56;47.54;102440.06;4990323;28;20042;-66
2022/11/26 02:12:03;;;;;;;20.63;4.30;;;;;;;14.55;47.33;102432.94;4974427;28;20030;-66
2022/11/26 02:14:34;;;;;;;12.57;3.20;;;;;;;14.57;47.39;102438.22;4990428;28;20035;-66
2022/11/26 02:17:06;;;;;;;15.68;4.00;;;;;;;14.58;47.08;102448.00;4974254;28;20556;-65
2022/11/26 02:19:49;;;;;;;14.88;3.70;;;;;;;14.56;47.01;102445.44;4975658;28;20058;-66
2022/11/26 02:22:30;;;;;;;12.52;4.57;;;;;;;14.55;47.48;102449.09;4974107;28;20428;-65
2022/11/26 02:25:26;;;;;;;16.30;4.63;;;;;;;14.53;47.15;102448.38;4975222;28;20477;-66
2022/11/26 02:28:09;;;;;;;13.77;4.03;;;;;;;14.52;48.34;102452.03;4975173;28;20591;-65
2022/11/26 02:30:36;;;;;;;11.10;4.03;;;;;;;14.52;48.34;102452.03;4974032;28;20070;-65
2022/11/26 02:33:13;;;;;;;6.13;3.15;;;;;;;14.49;47.92;102440.59;4957952;28;20053;-66
2022/11/26 02:35:43;;;;;;;19.20;4.60;;;;;;;14.50;47.21;102445.91;4989933;28;20038;-65
2022/11/26 02:38:11;;;;;;;12.43;3.30;;;;;;;14.49;47.11;102452.25;4973517;28;20429;-65
2022/11/26 02:40:37;;;;;;;11.95;2.67;;;;;;;14.51;48.18;102460.25;4957367;28;20400;-65
2022/11/26 02:43:02;;;;;;;13.85;3.10;;;;;;;14.51;47.48;102461.13;4973867;28;20089;-66
2022/11/26 02:45:32;;;;;;;18.25;2.95;;;;;;;14.51;46.91;102460.25;4973898;28;20180;-65
2022/11/26 02:48:00;;;;;;;7.80;2.50;;;;;;;14.49;47.92;102457.66;4974002;28;20117;-66
2022/11/26 02:50:30;;;;;;;11.55;3.70;;;;;;;14.53;48.25;102480.72;4973547;28;20059;-66
2022/11/26 02:52:57;;;;;;;16.02;3.38;;;;;;;14.50;47.16;102474.69;4973756;28;20043;-66
2022/11/26 02:55:26;;;;;;;11.88;3.55;;;;;;;14.51;47.41;102471.91;4973623;28;20443;-66
2022/11/26 02:57:51;;;;;;;17.95;4.05;;;;;;;14.51;48.33;102477.28;4989802;28;20035;-65
2022/11/26 03:00:17;;;;;;;16.05;3.55;;;;;;;14.53;46.93;102480.72;4973519;28;20420;-66
2022/11/26 03:02:46;;;;;;;11.65;3.47;;;;;;;14.53;46.91;102486.13;4974052;28;20027;-66
2022/11/26 03:05:13;;;;;;;8.25;3.17;;;;;;;14.48;48.39;102482.03;4973276;28;20043;-66
2022/11/26 03:07:39;;;;;;;9.82;3.15;;;;;;;14.48;48.05;102487.44;4989445;28;20097;-65
2022/11/26 03:10:06;;;;;;;16.75;3.88;;;;;;;14.47;48.71;102486.56;4957047;28;20030;-66
2022/11/26 03:12:31;;;;;;;11.50;3.00;;;;;;;14.45;47.97;102488.53;4973019;28;20045;-66
2022/11/26 03:14:57;;;;;;;13.50;3.92;;;;;;;14.43;48.02;102489.63;4989950;28;20105;-66
2022/11/26 03:17:22;;;;;;;7.90;2.88;;;;;;;14.42;47.79;102493.28;4973340;28;20461;-66
2022/11/26 03:19:48;;;;;;;10.85;3.35;;;;;;;14.38;47.75;102481.84;4973135;28;20035;-66
2022/11/26 03:22:14;;;;;;;8.38;3.67;;;;;;;14.40;47.30;102493.41;4989585;28;20038;-66
2022/11/26 03:24:39;;;;;;;13.57;4.13;;;;;;;14.39;48.35;102493.50;4957270;28;20106;-65
2022/11/26 03:27:05;;;;;;;19.73;4.15;;;;;;;14.35;47.50;102490.16;4989982;28;20560;-65
2022/11/26 03:29:31;;;;;;;15.88;3.92;;;;;;;14.37;47.04;102498.16;4974748;28;20493;-66
2022/11/26 03:31:56;;;;;;;17.55;4.15;;;;;;;14.35;47.28;102505.50;4974516;28;20057;-66
2022/11/26 03:34:21;;;;;;;7.40;3.42;;;;;;;14.34;47.46;102501.94;4975663;28;20049;-65
2022/11/26 03:36:47;;;;;;;12.00;3.47;;;;;;;14.35;47.01;102514.44;4977028;28;20042;-65
2022/11/26 03:39:12;;;;;;;11.50;3.33;;;;;;;14.35;48.18;102524.38;4977195;28;20072;-64
2022/11/26 03:41:37;;;;;;;12.50;3.63;;;;;;;14.33;47.99;102511.00;4979179;28;20097;-65
2022/11/26 03:44:03;;;;;;;10.07;4.30;;;;;;;14.31;47.81;102518.31;4977035;28;20063;-65
2022/11/26 03:46:28;;;;;;;11.68;3.42;;;;;;;14.29;47.53;102520.22;4960779;28;20034;-65
2022/11/26 03:48:54;;;;;;;11.25;3.33;;;;;;;14.26;47.96;102515.09;4992892;28;20118;-66
2022/11/26 03:51:19;;;;;;;10.15;3.40;;;;;;;14.25;47.48;102524.13;4976608;28;20027;-65
2022/11/26 03:53:45;;;;;;;8.63;3.83;;;;;;;14.24;46.84;102522.41;4978401;28;20064;-65
2022/11/26 03:56:10;;;;;;;11.70;3.58;;;;;;;14.22;47.25;102518.09;4993160;28;20031;-65
2022/11/26 03:58:36;;;;;;;16.15;3.55;;;;;;;14.19;48.24;102524.56;4993235;28;20122;-66
2022/11/26 04:01:07;;;;;;;11.73;3.45;;;;;;;14.18;48.48;102528.22;4976996;28;20033;-66
2022/11/26 04:03:32;;;;;;;8.82;3.45;;;;;;;14.16;48.00;102530.19;4977959;28;20031;-65
2022/11/26 04:05:58;;;;;;;10.23;3.22;;;;;;;14.15;47.13;102538.41;4976922;28;20400;-66
2022/11/26 04:08:23;;;;;;;16.85;3.45;;;;;;;14.15;48.31;102539.25;4977782;28;20493;-65
2022/11/26 04:10:48;;;;;;;9.13;3.70;;;;;;;14.13;47.93;102541.19;4976427;28;20505;-65
2022/11/26 04:13:14;;;;;;;15.15;4.30;;;;;;;14.08;47.89;102532.56;4978123;28;20496;-65
2022/11/26 04:15:40;;;;;;;9.80;3.50;;;;;;;14.08;46.80;102543.34;4976539;28;20477;-65
2022/11/26 04:18:05;;;;;;;12.93;3.83;;;;;;;14.04;47.48;102546.38;4976865;28;20038;-65
2022/11/26 04:20:31;;;;;;;12.15;3.55;;;;;;;13.99;48.03;102546.69;4977638;28;20027;-66
2022/11/26 04:22:56;;;;;;;9.15;3.78;;;;;;;13.96;48.34;102545.09;4977493;28;20086;-65
2022/11/26 04:25:21;;;;;;;10.60;3.88;;;;;;;13.97;47.40;102556.72;4992395;28;20043;-65
2022/11/26 04:27:47;;;;;;;13.30;4.00;;;;;;;13.93;47.29;102555.25;4976195;28;20054;-65
2022/11/26 04:30:13;;;;;;;12.38;3.78;;;;;;;13.92;47.40;102561.59;4975817;28;20027;-64
2022/11/26 04:32:38;;;;;;;8.32;3.80;;;;;;;13.95;48.00;102566.75;4992609;28;20027;-65
2022/11/26 04:35:06;;;;;;;8.10;4.10;;;;;;;13.93;47.29;102566.84;4977284;28;20038;-65
2022/11/26 04:37:31;;;;;;;7.97;4.00;;;;;;;13.95;47.14;102564.06;4976470;28;20389;-65
2022/11/26 04:39:56;;;;;;;13.40;4.85;;;;;;;13.96;47.47;102565.75;4976231;28;20030;-65
2022/11/26 04:42:22;;;;;;;16.80;4.53;;;;;;;13.95;48.11;102566.75;4975934;28;20038;-65
2022/11/26 04:44:47;;;;;;;8.27;4.20;;;;;;;13.94;47.13;102567.72;4977575;28;20476;-65
2022/11/26 04:47:12;;;;;;;14.60;5.78;;;;;;;13.93;47.38;102566.00;4976271;28;20049;-65
2022/11/26 04:49:41;;;;;;;18.23;5.07;;;;;;;13.91;48.23;102571.50;4992802;28;20400;-66
2022/11/26 04:52:06;;;;;;;11.98;5.00;;;;;;;13.87;48.40;102571.81;4975578;28;20027;-65
2022/11/26 04:54:31;;;;;;;17.90;6.07;;;;;;;13.82;48.15;102563.19;4959445;28;20050;-65
2022/11/26 04:56:57;;;;;;;16.20;6.28;;;;;;;13.79;47.31;102579.59;4991920;28;20101;-65
2022/11/26 04:59:22;;;;;;;14.40;5.47;;;;;;;13.73;48.45;102575.50;4992341;28;20034;-65
2022/11/26 05:01:47;;;;;;;19.15;6.05;;;;;;;13.70;48.52;102569.44;4991748;28;20162;-65
2022/11/26 05:04:13;;;;;;;16.85;5.05;;;;;;;13.67;48.40;102575.03;4977278;28;20038;-65
2022/11/26 05:06:38;;;;;;;12.25;5.78;;;;;;;13.64;48.39;102583.31;4975510;28;20046;-65
2022/11/26 05:09:04;;;;;;;16.15;6.00;;;;;;;13.62;47.36;102577.19;4975821;28;20057;-65
2022/11/26 05:11:29;;;;;;;17.95;6.40;;;;;;;13.63;48.64;102584.28;4975671;28;20073;-65
2022/11/26 05:13:55;;;;;;;17.17;6.30;;;;;;;13.62;47.67;102578.06;4991540;28;20500;-65
2022/11/26 05:16:20;;;;;;;19.92;5.68;;;;;;;13.56;48.47;102569.53;4975324;28;20122;-65
2022/11/26 05:18:45;;;;;;;30.70;6.47;;;;;;;13.59;48.48;102577.41;4975332;28;20507;-65
2022/11/26 05:21:11;;;;;;;14.20;5.40;;;;;;;13.56;47.99;102575.78;4991990;28;20078;-65
2022/11/26 05:23:36;;;;;;;15.82;4.95;;;;;;;13.56;48.11;102578.47;4976635;28;20564;-66
2022/11/26 05:26:02;;;;;;;15.32;5.07;;;;;;;13.57;48.74;102582.03;4991082;28;20039;-65
2022/11/26 05:28:27;;;;;;;10.60;4.47;;;;;;;13.56;48.29;102588.38;4965221;28;20039;-65
2022/11/26 05:31:03;;;;;;;15.45;5.47;;;;;;;13.54;48.86;102590.31;4994451;28;20423;-65
2022/11/26 05:33:28;;;;;;;9.68;5.05;;;;;;;13.53;48.50;102591.28;4994686;28;20373;-66
2022/11/26 05:35:54;;;;;;;15.48;5.25;;;;;;;13.53;48.20;102599.34;4978444;28;20037;-65
2022/11/26 05:38:19;;;;;;;14.60;5.53;;;;;;;13.53;48.03;102602.91;4994575;28;20514;-66
2022/11/26 05:40:44;;;;;;;15.27;5.18;;;;;;;13.55;47.61;102605.50;4994428;28;20191;-65
2022/11/26 05:43:10;;;;;;;14.82;5.13;;;;;;;13.55;47.47;102597.41;4994437;28;20414;-65
2022/11/26 05:45:35;;;;;;;17.95;5.93;;;;;;;13.56;48.76;102594.63;4978311;28;20085;-65
2022/11/26 05:48:01;;;;;;;12.73;5.38;;;;;;;13.54;48.60;102579.56;4994414;28;20030;-65
2022/11/26 05:50:26;;;;;;;12.70;5.68;;;;;;;13.54;47.90;102584.94;4994051;28;20065;-65
2022/11/26 05:52:51;;;;;;;14.38;5.45;;;;;;;13.58;48.64;102597.22;4994627;28;20039;-65
2022/11/26 05:55:17;;;;;;;14.00;4.65;;;;;;;13.58;48.23;102594.50;4978089;28;20113;-65
2022/11/26 05:57:43;;;;;;;13.82;4.35;;;;;;;13.57;48.32;102595.50;4976985;28;20084;-65
2022/11/26 06:00:09;;;;;;;10.05;4.78;;;;;;;13.59;47.93;102598.94;4994484;28;20096;-66
2022/11/26 06:02:35;;;;;;;13.32;5.25;;;;;;;13.56;48.84;102593.75;4994482;28;20109;-65
2022/11/26 06:05:00;;;;;;;14.07;5.55;;;;;;;13.57;48.07;102600.88;4994213;28;20035;-65
2022/11/26 06:07:26;;;;;;;10.77;5.68;;;;;;;13.56;48.00;102605.41;4977592;28;20415;-65
2022/11/26 06:09:51;;;;;;;9.15;4.72;;;;;;;13.54;48.03;102604.63;4994435;28;20546;-65
2022/11/26 06:12:16;;;;;;;11.10;4.28;;;;;;;13.52;48.80;102597.63;4993674;28;20030;-64
2022/11/26 06:14:42;;;;;;;14.07;5.13;;;;;;;13.56;47.97;102604.53;4994380;28;20033;-65
2022/11/26 06:17:07;;;;;;;14.05;4.28;;;;;;;13.57;48.61;102608.97;4995501;28;20113;-65
2022/11/26 06:19:32;;;;;;;11.10;4.13;;;;;;;13.55;47.45;102609.06;4994326;28;20034;-65
2022/11/26 06:21:58;;;;;;;15.57;4.25;;;;;;;13.56;48.33;102616.19;4994332;28;20049;-65
2022/11/26 06:24:23;;;;;;;13.05;5.45;;;;;;;13.55;47.89;102608.19;4993248;28;20026;-65
2022/11/26 06:26:48;;;;;;;9.82;4.93;;;;;;;13.55;47.94;102608.19;4993762;28;20026;-65
2022/11/26 06:29:14;;;;;;;12.27;4.47;;;;;;;13.57;48.20;102622.44;4994513;28;20042;-65
2022/11/26 06:31:39;;;;;;;14.32;4.38;;;;;;;13.56;48.56;102621.56;4978078;28;20058;-65
2022/11/26 06:34:04;;;;;;;11.93;4.47;;;;;;;13.58;48.95;102618.75;4995068;28;20488;-65
2022/11/26 06:36:30;;;;;;;13.10;3.80;;;;;;;13.55;47.80;102619.81;4994027;28;20113;-65
2022/11/26 06:38:55;;;;;;;12.75;4.72;;;;;;;13.51;48.39;102617.44;4994723;28;20023;-65
2022/11/26 06:41:20;;;;;;;13.88;4.90;;;;;;;13.47;48.29;102621.31;4993750;28;20035;-65
2022/11/26 06:43:46;;;;;;;14.15;5.68;;;;;;;13.47;47.75;102632.06;4993969;28;20073;-65
2022/11/26 06:46:12;;;;;;;10.00;3.95;;;;;;;13.43;48.55;102637.66;4994232;28;20132;-65
2022/11/26 06:48:38;;;;;;;13.32;4.13;;;;;;;13.43;47.94;102641.34;4977578;28;20169;-65
2022/11/26 06:51:04;;;;;;;14.82;3.35;;;;;;;13.43;47.75;102637.66;4994066;28;20034;-65
2022/11/26 06:53:30;;;;;;;5.63;2.70;;;;;;;13.43;48.15;102634.97;4994486;28;20044;-65
2022/11/26 06:56:01;;;;;;;8.18;3.10;;;;;;;13.41;49.08;102647.69;4993201;28;20073;-65
2022/11/26 06:58:26;;;;;;;11.68;3.25;;;;;;;13.43;48.68;102632.28;4993494;28;20463;-65
2022/11/26 07:00:52;;;;;;;9.27;3.97;;;;;;;13.46;48.35;102635.72;4994434;28;20034;-65
2022/11/26 07:03:17;;;;;;;14.45;4.40;;;;;;;13.49;48.09;102641.78;4993542;28;20030;-64
2022/11/26 07:05:43;;;;;;;12.65;3.10;;;;;;;13.52;48.48;102646.09;4993730;28;20053;-65
2022/11/26 07:08:08;;;;;;;6.45;2.40;;;;;;;13.56;48.89;102642.22;4992049;28;20389;-65
2022/11/26 07:10:33;;;;;;;7.15;2.88;;;;;;;13.57;48.11;102639.41;4994417;28;20108;-66
2022/11/26 07:12:59;;;;;;;8.55;2.65;;;;;;;13.59;48.85;102642.03;4992916;28;20113;-65
2022/11/26 07:15:25;;;;;;;7.70;2.83;;;;;;;13.59;49.03;102642.91;4977224;28;20026;-65
2022/11/26 07:17:50;;;;;;;8.02;2.63;;;;;;;13.59;47.80;102639.34;4995046;28;20396;-65
2022/11/26 07:20:15;;;;;;;12.05;3.13;;;;;;;13.61;47.97;102640.94;4993827;28;20101;-65
2022/11/26 07:22:41;;;;;;;7.22;2.80;;;;;;;13.65;48.66;102658.59;4994634;28;20042;-65
2022/11/26 07:25:06;;;;;;;8.95;2.78;;;;;;;13.67;48.31;102655.81;4994310;28;20050;-65
2022/11/26 07:27:32;;;;;;;9.88;3.05;;;;;;;13.71;48.09;102657.31;4993235;28;20044;-65
2022/11/26 07:29:57;;;;;;;9.05;3.88;;;;;;;13.71;48.36;102657.31;4992772;28;20050;-65
2022/11/26 07:32:22;;;;;;;7.47;3.35;;;;;;;13.72;47.88;102664.44;4989865;28;20030;-66
2022/11/26 07:34:48;;;;;;;10.00;2.72;;;;;;;13.73;48.51;102656.28;4994177;28;20089;-65
2022/11/26 07:37:13;;;;;;;14.20;3.22;;;;;;;13.73;47.50;102655.41;4993293;28;20030;-65
2022/11/26 07:39:41;;;;;;;11.88;3.03;;;;;;;13.72;47.45;102657.25;4976813;28;20031;-65
2022/11/26 07:42:06;;;;;;;11.38;2.58;;;;;;;13.75;47.98;102659.72;4995176;28;20373;-65
2022/11/26 07:44:32;;;;;;;6.43;2.00;;;;;;;13.75;48.59;102661.56;4993365;28;20070;-64
2022/11/26 07:46:57;;;;;;;10.40;2.22;;;;;;;13.77;48.12;102662.31;4992555;28;20034;-65
2022/11/26 07:49:22;;;;;;;9.23;2.45;;;;;;;13.80;47.31;102672.88;4993195;28;20031;-63
2022/11/26 07:51:48;;;;;;;4.30;2.35;;;;;;;13.86;47.83;102683.22;4993311;28;20081;-65
2022/11/26 07:54:13;;;;;;;6.53;2.70;;;;;;;13.90;48.16;102690.16;4976751;28;20113;-64
2022/11/26 07:56:38;;;;;;;8.20;2.63;;;;;;;13.93;47.74;102684.56;4994408;28;20054;-65
2022/11/26 07:59:04;;;;;;;10.27;2.85;;;;;;;13.97;48.01;102680.66;4994358;28;20034;-65
2022/11/26 08:01:30;;;;;;;6.68;2.22;;;;;;;14.02;48.69;102689.28;4994494;28;20404;-65
2022/11/26 08:03:56;;;;;;;9.48;2.72;;;;;;;14.04;47.66;102692.75;4993250;28;20058;-65
2022/11/26 08:06:23;;;;;;;6.65;2.90;;;;;;;14.07;47.81;102692.50;4977059;28;20129;-65
2022/11/26 08:08:49;;;;;;;6.03;2.22;;;;;;;14.08;47.88;102688.88;4977024;28;20030;-65
2022/11/26 08:11:18;;;;;;;7.20;2.28;;;;;;;14.10;48.88;102695.00;4976723;28;20396;-65
2022/11/26 08:13:44;;;;;;;3.55;2.22;;;;;;;14.11;47.87;102694.03;4994406;28;20042;-65
2022/11/26 08:16:10;;;;;;;10.32;1.83;;;;;;;14.15;47.62;102695.56;4992818;28;20094;-65
2022/11/26 08:18:35;;;;;;;5.82;1.60;;;;;;;14.19;48.16;102683.59;4992829;28;20038;-65
2022/11/26 08:21:01;;;;;;;9.00;2.33;;;;;;;14.22;48.26;102688.78;4979983;28;20045;-65
2022/11/26 08:23:28;;;;;;;12.68;2.60;;;;;;;14.24;48.37;102686.81;4996626;28;20035;-65
2022/11/26 08:25:54;;;;;;;3.33;1.70;;;;;;;14.26;47.89;102694.81;4996353;28;20042;-65
2022/11/26 08:28:19;;;;;;;13.77;2.13;;;;;;;14.30;48.07;102683.69;4980320;28;20034;-65
2022/11/26 08:30:45;;;;;;;4.70;2.10;;;;;;;14.37;47.79;102689.56;4996187;28;20031;-65
2022/11/26 08:33:10;;;;;;;13.55;3.38;;;;;;;14.44;48.77;102691.72;4996783;28;20034;-65
2022/11/26 08:35:36;;;;;;;5.93;2.20;;;;;;;14.55;48.22;102694.50;4996466;28;20045;-66
2022/11/26 08:38:01;;;;;;;8.30;2.13;;;;;;;14.71;47.93;102691.59;4996341;28;20038;-66
2022/11/26 08:40:27;;;;;;;11.35;2.40;;;;;;;14.87;47.39;102696.75;4979607;28;20500;-65
2022/11/26 08:42:52;;;;;;;7.10;2.53;;;;;;;15.02;47.52;102698.31;4997095;28;20046;-66
2022/11/26 08:45:18;;;;;;;9.45;1.70;;;;;;;15.16;48.53;102690.06;4979344;28;20030;-66
2022/11/26 08:47:43;;;;;;;9.68;1.63;;;;;;;15.30;47.78;102681.81;4996082;28;20469;-65
2022/11/26 08:50:09;;;;;;;11.70;1.90;;;;;;;15.43;47.93;102687.16;4995413;28;20034;-66
2022/11/26 08:52:34;;;;;;;12.88;1.80;;;;;;;15.52;48.16;102695.44;4995215;28;20424;-66
2022/11/26 08:54:59;;;;;;;10.45;1.88;;;;;;;15.58;47.61;102686.88;4996342;28;20034;-66
2022/11/26 08:57:25;;;;;;;6.63;1.40;;;;;;;15.61;48.28;102689.38;4978717;28;20050;-66
2022/11/26 08:59:50;;;;;;;11.48;2.33;;;;;;;15.68;48.06;102704.16;4996807;28;20451;-65
2022/11/26 09:02:16;;;;;;;5.28;1.80;;;;;;;15.74;48.66;102698.25;4996306;28;20037;-65
2022/11/26 09:04:42;;;;;;;8.85;1.42;;;;;;;15.81;48.07;102697.78;4995192;28;20558;-65
2022/11/26 09:07:07;;;;;;;4.28;1.60;;;;;;;15.90;48.59;102697.97;4978754;28;20037;-66
2022/11/26 09:09:32;;;;;;;6.30;2.08;;;;;;;15.98;48.54;102689.25;4994785;28;20108;-65
2022/11/26 09:11:59;;;;;;;12.43;2.20;;;;;;;16.08;49.01;102698.41;4996512;28;20027;-66
2022/11/26 09:14:27;;;;;;;9.25;1.98;;;;;;;16.16;48.61;102704.06;4995054;28;20041;-66
2022/11/26 09:16:53;;;;;;;13.05;2.85;;;;;;;16.22;47.70;102692.75;4995115;28;20599;-66
2022/11/26 09:19:19;;;;;;;15.23;2.75;;;;;;;16.27;48.32;102693.28;4994851;28;20105;-66
2022/11/26 09:21:45;;;;;;;31.48;8.23;;;;;;;16.33;48.51;102701.75;4994808;28;20046;-64
2022/11/26 09:24:10;;;;;;;7.03;2.17;;;;;;;16.37;48.10;102713.19;4995158;28;20472;-65
2022/11/26 09:26:36;;;;;;;10.77;2.05;;;;;;;16.39;48.01;102711.22;4994591;28;20118;-65
2022/11/26 09:29:02;;;;;;;16.98;5.07;;;;;;;16.47;47.96;102716.03;4994448;28;20034;-65
2022/11/26 09:31:28;;;;;;;12.88;3.22;;;;;;;16.52;47.25;102717.41;4993495;28;20149;-65
2022/11/26 09:33:58;;;;;;;6.20;2.03;;;;;;;16.54;47.88;102720.00;4995614;28;20489;-65
2022/11/26 09:36:23;;;;;;;4.88;1.73;;;;;;;16.60;47.97;102717.69;4994370;28;20037;-65
2022/11/26 09:38:53;;;;;;;5.75;1.77;;;;;;;16.64;47.63;102716.44;4994660;28;20030;-65
2022/11/26 09:41:30;;;;;;;7.63;1.73;;;;;;;16.67;47.39;102710.78;4994279;28;20037;-65
2022/11/26 09:44:10;;;;;;;5.90;1.55;;;;;;;16.70;47.87;102713.25;4995401;28;20038;-65
2022/11/26 09:47:05;;;;;;;6.45;1.40;;;;;;;16.75;48.33;102707.50;4994283;28;20481;-65
2022/11/26 09:49:35;;;;;;;25.80;5.85;;;;;;;16.77;48.61;102717.19;4976969;28;20501;-65
2022/11/26 09:52:02;;;;;;;9.43;1.73;;;;;;;16.77;48.23;102706.38;4995288;28;20540;-65
2022/11/26 09:54:28;;;;;;;14.55;2.08;;;;;;;16.80;47.37;102716.97;4977650;28;20023;-65
2022/11/26 09:57:01;;;;;;;6.55;1.65;;;;;;;16.84;46.94;102721.13;4977973;28;20046;-65
2022/11/26 09:59:27;;;;;;;;;;;;;;;16.89;48.62;102726.16;4994445;28;20022;-65
2022/11/26 10:01:52;;;;;;;12.02;3.75;;;;;;;16.92;47.48;102720.50;4993849;28;19968;-65
2022/11/26 10:04:23;;;;;;;9.63;3.78;;;;;;;16.97;47.83;102706.59;4993684;28;20081;-65
2022/11/26 10:07:01;;;;;;;8.13;1.83;;;;;;;17.00;48.13;102706.38;4993616;28;20034;-65
2022/11/26 10:09:29;;;;;;;7.10;1.35;;;;;;;17.00;47.70;102711.78;4993550;28;20438;-65
2022/11/26 10:12:13;;;;;;;8.77;1.90;;;;;;;16.98;48.21;102720.00;4993932;28;20030;-65
2022/11/26 10:14:41;;;;;;;6.57;1.48;;;;;;;16.93;47.53;102718.66;4993491;28;20044;-65
2022/11/26 10:17:33;;;;;;;15.32;2.15;;;;;;;16.91;47.89;102715.22;4993318;28;20076;-65
2022/11/26 10:20:27;;;;;;;11.02;2.30;;;;;;;16.91;47.49;102717.94;4993359;28;20033;-67
2022/11/26 10:23:01;;;;;;;7.38;1.52;;;;;;;16.89;48.11;102716.19;4993338;28;20040;-65
2022/11/26 10:25:39;;;;;;;7.25;1.80;;;;;;;16.90;47.75;102722.47;4994164;28;20038;-64
2022/11/26 10:28:17;;;;;;;10.20;2.95;;;;;;;16.94;47.64;102728.50;4993119;28;20046;-65
2022/11/26 10:30:43;;;;;;;14.15;1.75;;;;;;;16.93;46.94;102716.81;4993154;28;20041;-65
2022/11/26 10:33:14;;;;;;;74.38;18.00;;;;;;;16.99;48.17;102724.44;4977449;28;20125;-65
2022/11/26 10:35:41;;;;;;;24.92;4.93;;;;;;;17.09;48.13;102725.41;4977400;28;20474;-65
2022/11/26 10:38:09;;;;;;;12.38;2.58;;;;;;;17.12;47.18;102727.88;4994576;28;20416;-65
2022/11/26 10:40:34;;;;;;;7.68;1.90;;;;;;;17.17;46.98;102731.06;4993272;28;20408;-64
2022/11/26 10:43:09;;;;;;;12.48;1.80;;;;;;;17.25;47.18;102727.75;4976700;28;20030;-65
2022/11/26 10:45:46;;;;;;;14.45;2.17;;;;;;;17.39;47.10;102727.47;4992848;28;20093;-65
2022/11/26 10:48:32;;;;;;;8.90;1.83;;;;;;;17.49;47.39;102725.72;4993553;28;20054;-64
2022/11/26 10:50:57;;;;;;;11.40;2.30;;;;;;;17.52;47.39;102725.47;4993086;28;20042;-65
2022/11/26 10:53:24;;;;;;;6.18;1.52;;;;;;;17.54;47.18;102707.25;4994031;28;20393;-65
2022/11/26 10:55:51;;;;;;;13.90;2.10;;;;;;;17.70;46.92;102714.97;4992831;28;20571;-65
2022/11/26 10:58:26;;;;;;;14.13;2.40;;;;;;;17.84;46.69;102699.22;4976361;28;20125;-65
2022/11/26 11:00:57;;;;;;;6.25;1.58;;;;;;;17.94;47.45;102694.75;4976614;28;20558;-65
2022/11/26 11:03:24;;;;;;;8.07;2.40;;;;;;;17.98;47.36;102700.75;4993139;28;20106;-65
2022/11/26 11:05:50;;;;;;;12.10;2.28;;;;;;;17.96;46.42;102698.19;4993154;28;20369;-65
2022/11/26 11:08:32;;;;;;;6.75;1.80;;;;;;;17.95;46.82;102690.22;4992498;28;20057;-65
2022/11/26 11:11:00;;;;;;;10.40;1.80;;;;;;;17.92;46.34;102693.19;4992551;28;20091;-65
2022/11/26 11:13:43;;;;;;;7.45;1.70;;;;;;;18.06;46.88;102697.41;4992683;28;20038;-65
2022/11/26 11:16:08;;;;;;;;;;;;;;;18.21;46.62;102696.06;4992764;28;20492;-65
2022/11/26 11:18:34;;;;;;;10.02;1.88;;;;;;;18.33;46.76;102700.44;4992777;28;19921;-65
2022/11/26 11:21:02;;;;;;;6.45;1.73;;;;;;;18.39;46.46;102695.34;4993096;28;20080;-65